Terminal Aerodrome Forecast
Issued by NWS Mt. Holly, NJ

Home | Current Version | Previous Version | Text Only | Print | Product List | Glossary On
Versions: 1 2 3 4 5 6 7 8 9 10 11 12 13 14 15 16 17 18 19 20 21 22 23 24 25 26 27 28 29 30
000
FTUS41 KPHI 301728
TAFPHL
TAF
KPHL 301728Z 3018/3124 16005KT P6SM OVC100
     FM302300 13007KT P6SM BKN050 OVC090 PROB30 3105/3107 4SM -RA
      OVC025
     FM310700 11006KT 4SM -RA BR BKN020 OVC040
     FM311100 08012KT 5SM -RA BR BKN008 OVC010
     FM311500 09012KT 1SM RA BR BKN003 OVC008
     FM311900 09015KT 1SM RA BR OVC005=

USA.gov is the U.S. government's official web portal to all federal, state and local government web resources and services.